sensor_id;sensor_type;location;lat;lon;timestamp;P1;durP1;ratioP1;P2;durP2;ratioP2
3465;SDS011;1747;48.884;9.160;2024-03-08T03:26:15;21.73;;;10.93;;
3465;SDS011;1747;48.884;9.160;2024-03-08T03:28:42;22.75;;;11.75;;
3465;SDS011;1747;48.884;9.160;2024-03-08T03:31:09;19.95;;;11.52;;
3465;SDS011;1747;48.884;9.160;2024-03-08T03:33:39;20.73;;;10.77;;
3465;SDS011;1747;48.884;9.160;2024-03-08T03:36:06;19.65;;;10.65;;
3465;SDS011;1747;48.884;9.160;2024-03-08T03:38:33;20.48;;;11.05;;
3465;SDS011;1747;48.884;9.160;2024-03-08T03:41:00;23.40;;;10.90;;
3465;SDS011;1747;48.884;9.160;2024-03-08T03:43:36;22.13;;;11.13;;
3465;SDS011;1747;48.884;9.160;2024-03-08T03:46:05;23.77;;;10.90;;
3465;SDS011;1747;48.884;9.160;2024-03-08T03:48:32;22.73;;;11.50;;
3465;SDS011;1747;48.884;9.160;2024-03-08T03:50:59;22.40;;;11.13;;
3465;SDS011;1747;48.884;9.160;2024-03-08T03:53:26;21.73;;;10.82;;
3465;SDS011;1747;48.884;9.160;2024-03-08T03:55:53;22.90;;;11.10;;
3465;SDS011;1747;48.884;9.160;2024-03-08T03:58:20;22.80;;;10.88;;
3465;SDS011;1747;48.884;9.160;2024-03-08T04:00:48;22.15;;;11.00;;
3465;SDS011;1747;48.884;9.160;2024-03-08T04:03:15;21.63;;;11.18;;
3465;SDS011;1747;48.884;9.160;2024-03-08T04:05:43;19.52;;;10.43;;
3465;SDS011;1747;48.884;9.160;2024-03-08T04:08:10;21.95;;;10.57;;
3465;SDS011;1747;48.884;9.160;2024-03-08T04:10:37;20.77;;;10.25;;
3465;SDS011;1747;48.884;9.160;2024-03-08T04:13:03;23.15;;;10.77;;
3465;SDS011;1747;48.884;9.160;2024-03-08T04:15:30;21.83;;;11.23;;
3465;SDS011;1747;48.884;9.160;2024-03-08T04:17:58;24.02;;;11.55;;
3465;SDS011;1747;48.884;9.160;2024-03-08T04:20:27;18.98;;;10.35;;
3465;SDS011;1747;48.884;9.160;2024-03-08T04:22:53;21.95;;;10.48;;
3465;SDS011;1747;48.884;9.160;2024-03-08T04:25:21;22.80;;;11.43;;
3465;SDS011;1747;48.884;9.160;2024-03-08T04:27:48;20.80;;;10.85;;
3465;SDS011;1747;48.884;9.160;2024-03-08T04:30:16;20.90;;;10.48;;
3465;SDS011;1747;48.884;9.160;2024-03-08T04:32:43;21.13;;;10.18;;
3465;SDS011;1747;48.884;9.160;2024-03-08T04:35:11;22.23;;;11.30;;
3465;SDS011;1747;48.884;9.160;2024-03-08T04:37:38;20.80;;;10.50;;
3465;SDS011;1747;48.884;9.160;2024-03-08T04:40:06;20.50;;;11.00;;
3465;SDS011;1747;48.884;9.160;2024-03-08T04:42:33;21.52;;;10.98;;
3465;SDS011;1747;48.884;9.160;2024-03-08T04:45:00;20.20;;;10.85;;
3465;SDS011;1747;48.884;9.160;2024-03-08T04:47:30;20.88;;;9.85;;
3465;SDS011;1747;48.884;9.160;2024-03-08T04:49:56;21.25;;;10.88;;
3465;SDS011;1747;48.884;9.160;2024-03-08T04:52:25;19.55;;;9.38;;
3465;SDS011;1747;48.884;9.160;2024-03-08T04:54:53;20.15;;;10.65;;
3465;SDS011;1747;48.884;9.160;2024-03-08T04:57:20;23.48;;;10.93;;
3465;SDS011;1747;48.884;9.160;2024-03-08T04:59:47;20.00;;;10.80;;
3465;SDS011;1747;48.884;9.160;2024-03-08T05:02:13;20.17;;;9.48;;
3465;SDS011;1747;48.884;9.160;2024-03-08T05:04:40;21.83;;;10.05;;
3465;SDS011;1747;48.884;9.160;2024-03-08T05:07:07;23.20;;;10.88;;
3465;SDS011;1747;48.884;9.160;2024-03-08T05:09:36;20.73;;;10.32;;
3465;SDS011;1747;48.884;9.160;2024-03-08T05:12:03;23.13;;;11.10;;
3465;SDS011;1747;48.884;9.160;2024-03-08T05:14:30;21.10;;;10.63;;
3465;SDS011;1747;48.884;9.160;2024-03-08T05:16:57;22.58;;;10.75;;
3465;SDS011;1747;48.884;9.160;2024-03-08T05:19:25;20.23;;;10.93;;
3465;SDS011;1747;48.884;9.160;2024-03-08T05:21:52;20.25;;;10.93;;
3465;SDS011;1747;48.884;9.160;2024-03-08T05:24:18;20.20;;;10.43;;
3465;SDS011;1747;48.884;9.160;2024-03-08T05:26:47;24.50;;;11.63;;
3465;SDS011;1747;48.884;9.160;2024-03-08T05:29:14;22.20;;;11.15;;
3465;SDS011;1747;48.884;9.160;2024-03-08T05:31:43;20.00;;;10.95;;
3465;SDS011;1747;48.884;9.160;2024-03-08T05:34:13;22.33;;;11.55;;
3465;SDS011;1747;48.884;9.160;2024-03-08T05:36:40;21.23;;;11.10;;
3465;SDS011;1747;48.884;9.160;2024-03-08T05:39:09;21.55;;;10.57;;
3465;SDS011;1747;48.884;9.160;2024-03-08T05:41:36;22.85;;;10.55;;
3465;SDS011;1747;48.884;9.160;2024-03-08T05:44:05;22.17;;;10.02;;
3465;SDS011;1747;48.884;9.160;2024-03-08T05:46:32;22.13;;;10.55;;
3465;SDS011;1747;48.884;9.160;2024-03-08T05:48:59;20.05;;;10.93;;
3465;SDS011;1747;48.884;9.160;2024-03-08T05:51:30;22.25;;;10.77;;
3465;SDS011;1747;48.884;9.160;2024-03-08T05:53:58;20.35;;;10.40;;
3465;SDS011;1747;48.884;9.160;2024-03-08T05:56:26;22.23;;;11.00;;
3465;SDS011;1747;48.884;9.160;2024-03-08T05:58:54;19.60;;;10.52;;
3465;SDS011;1747;48.884;9.160;2024-03-08T06:01:23;20.25;;;11.13;;
3465;SDS011;1747;48.884;9.160;2024-03-08T06:03:50;22.30;;;11.65;;
3465;SDS011;1747;48.884;9.160;2024-03-08T06:06:16;21.55;;;10.75;;
3465;SDS011;1747;48.884;9.160;2024-03-08T06:08:44;22.17;;;11.10;;
3465;SDS011;1747;48.884;9.160;2024-03-08T06:11:12;21.13;;;11.05;;
3465;SDS011;1747;48.884;9.160;2024-03-08T06:13:39;18.92;;;10.18;;
3465;SDS011;1747;48.884;9.160;2024-03-08T06:16:06;18.98;;;9.93;;
3465;SDS011;1747;48.884;9.160;2024-03-08T06:18:35;22.88;;;11.63;;
3465;SDS011;1747;48.884;9.160;2024-03-08T06:21:02;20.88;;;11.25;;
3465;SDS011;1747;48.884;9.160;2024-03-08T06:23:30;16.77;;;9.38;;
3465;SDS011;1747;48.884;9.160;2024-03-08T06:25:57;24.60;;;11.07;;
3465;SDS011;1747;48.884;9.160;2024-03-08T06:28:24;19.48;;;10.77;;
3465;SDS011;1747;48.884;9.160;2024-03-08T06:30:50;22.13;;;11.30;;
3465;SDS011;1747;48.884;9.160;2024-03-08T06:33:18;22.65;;;11.98;;
3465;SDS011;1747;48.884;9.160;2024-03-08T06:35:46;21.40;;;10.40;;
3465;SDS011;1747;48.884;9.160;2024-03-08T06:38:13;23.77;;;12.07;;
3465;SDS011;1747;48.884;9.160;2024-03-08T06:40:42;21.80;;;10.82;;
3465;SDS011;1747;48.884;9.160;2024-03-08T06:43:08;22.60;;;10.68;;
3465;SDS011;1747;48.884;9.160;2024-03-08T06:45:39;19.00;;;10.82;;
3465;SDS011;1747;48.884;9.160;2024-03-08T06:48:06;21.17;;;11.57;;
3465;SDS011;1747;48.884;9.160;2024-03-08T06:50:34;22.77;;;12.40;;
3465;SDS011;1747;48.884;9.160;2024-03-08T06:53:03;21.58;;;11.60;;
3465;SDS011;1747;48.884;9.160;2024-03-08T06:55:31;23.13;;;11.43;;
3465;SDS011;1747;48.884;9.160;2024-03-08T06:57:58;24.02;;;12.00;;
3465;SDS011;1747;48.884;9.160;2024-03-08T07:00:24;29.15;;;13.15;;
3465;SDS011;1747;48.884;9.160;2024-03-08T07:02:53;21.98;;;11.90;;
3465;SDS011;1747;48.884;9.160;2024-03-08T07:05:20;22.55;;;12.68;;
3465;SDS011;1747;48.884;9.160;2024-03-08T07:07:48;25.25;;;13.48;;
3465;SDS011;1747;48.884;9.160;2024-03-08T07:10:17;23.45;;;12.05;;
3465;SDS011;1747;48.884;9.160;2024-03-08T07:12:44;26.20;;;13.32;;
3465;SDS011;1747;48.884;9.160;2024-03-08T07:15:11;24.25;;;12.57;;
3465;SDS011;1747;48.884;9.160;2024-03-08T07:17:40;26.25;;;13.13;;
3465;SDS011;1747;48.884;9.160;2024-03-08T07:20:10;23.67;;;12.00;;
3465;SDS011;1747;48.884;9.160;2024-03-08T07:22:44;23.17;;;12.55;;
3465;SDS011;1747;48.884;9.160;2024-03-08T07:25:12;25.80;;;13.23;;
3465;SDS011;1747;48.884;9.160;2024-03-08T07:27:47;24.63;;;13.50;;
3465;SDS011;1747;48.884;9.160;2024-03-08T07:30:14;25.42;;;12.82;;
3465;SDS011;1747;48.884;9.160;2024-03-08T07:33:03;24.55;;;12.13;;
3465;SDS011;1747;48.884;9.160;2024-03-08T07:35:32;26.17;;;13.10;;
3465;SDS011;1747;48.884;9.160;2024-03-08T07:38:02;26.70;;;12.77;;
3465;SDS011;1747;48.884;9.160;2024-03-08T07:40:30;27.30;;;13.63;;
3465;SDS011;1747;48.884;9.160;2024-03-08T07:42:58;23.98;;;12.57;;
3465;SDS011;1747;48.884;9.160;2024-03-08T07:45:25;25.25;;;13.60;;
3465;SDS011;1747;48.884;9.160;2024-03-08T07:47:52;26.27;;;13.98;;
3465;SDS011;1747;48.884;9.160;2024-03-08T07:50:21;28.77;;;14.45;;
3465;SDS011;1747;48.884;9.160;2024-03-08T07:52:47;26.05;;;14.27;;
3465;SDS011;1747;48.884;9.160;2024-03-08T07:55:14;23.98;;;13.05;;
3465;SDS011;1747;48.884;9.160;2024-03-08T07:57:41;21.73;;;12.25;;
3465;SDS011;1747;48.884;9.160;2024-03-08T08:00:10;25.13;;;13.73;;
3465;SDS011;1747;48.884;9.160;2024-03-08T08:02:42;24.23;;;12.70;;
3465;SDS011;1747;48.884;9.160;2024-03-08T08:05:10;31.17;;;16.70;;
3465;SDS011;1747;48.884;9.160;2024-03-08T08:07:37;25.48;;;13.63;;
3465;SDS011;1747;48.884;9.160;2024-03-08T08:10:06;31.33;;;17.02;;
3465;SDS011;1747;48.884;9.160;2024-03-08T08:12:40;26.30;;;13.60;;
3465;SDS011;1747;48.884;9.160;2024-03-08T08:15:08;26.83;;;13.93;;
3465;SDS011;1747;48.884;9.160;2024-03-08T08:17:36;27.80;;;14.38;;
3465;SDS011;1747;48.884;9.160;2024-03-08T08:20:04;26.40;;;13.73;;
3465;SDS011;1747;48.884;9.160;2024-03-08T08:22:31;26.73;;;14.00;;
3465;SDS011;1747;48.884;9.160;2024-03-08T08:24:58;22.55;;;13.20;;
3465;SDS011;1747;48.884;9.160;2024-03-08T08:27:25;27.63;;;14.55;;
3465;SDS011;1747;48.884;9.160;2024-03-08T08:29:52;27.75;;;15.43;;
3465;SDS011;1747;48.884;9.160;2024-03-08T08:32:20;24.77;;;13.57;;
3465;SDS011;1747;48.884;9.160;2024-03-08T08:34:47;26.00;;;13.50;;
3465;SDS011;1747;48.884;9.160;2024-03-08T08:37:14;25.08;;;13.50;;
3465;SDS011;1747;48.884;9.160;2024-03-08T08:39:41;26.83;;;13.65;;
3465;SDS011;1747;48.884;9.160;2024-03-08T08:42:08;26.13;;;12.35;;
3465;SDS011;1747;48.884;9.160;2024-03-08T08:44:36;25.38;;;13.05;;
3465;SDS011;1747;48.884;9.160;2024-03-08T08:47:03;24.80;;;13.20;;
3465;SDS011;1747;48.884;9.160;2024-03-08T08:49:31;29.67;;;15.05;;
3465;SDS011;1747;48.884;9.160;2024-03-08T08:51:58;26.45;;;13.30;;
3465;SDS011;1747;48.884;9.160;2024-03-08T08:54:25;27.95;;;15.35;;
3465;SDS011;1747;48.884;9.160;2024-03-08T08:56:52;29.02;;;14.27;;
3465;SDS011;1747;48.884;9.160;2024-03-08T08:59:19;28.15;;;16.10;;
3465;SDS011;1747;48.884;9.160;2024-03-08T09:01:48;25.17;;;14.18;;
3465;SDS011;1747;48.884;9.160;2024-03-08T09:04:15;25.45;;;13.20;;
3465;SDS011;1747;48.884;9.160;2024-03-08T09:06:43;26.02;;;13.80;;
3465;SDS011;1747;48.884;9.160;2024-03-08T09:09:10;23.17;;;12.57;;
3465;SDS011;1747;48.884;9.160;2024-03-08T09:11:38;24.33;;;12.73;;
3465;SDS011;1747;48.884;9.160;2024-03-08T09:14:07;27.70;;;12.88;;
3465;SDS011;1747;48.884;9.160;2024-03-08T09:16:34;29.60;;;14.70;;
3465;SDS011;1747;48.884;9.160;2024-03-08T09:19:02;20.80;;;12.05;;
3465;SDS011;1747;48.884;9.160;2024-03-08T09:21:28;25.38;;;14.05;;
3465;SDS011;1747;48.884;9.160;2024-03-08T09:23:57;25.60;;;13.57;;
3465;SDS011;1747;48.884;9.160;2024-03-08T13:29:43;22.92;;;13.77;;
3465;SDS011;1747;48.884;9.160;2024-03-08T13:32:10;22.00;;;13.50;;
3465;SDS011;1747;48.884;9.160;2024-03-08T13:34:37;21.45;;;14.02;;
3465;SDS011;1747;48.884;9.160;2024-03-08T13:37:06;24.67;;;13.98;;
3465;SDS011;1747;48.884;9.160;2024-03-08T13:39:34;21.15;;;13.82;;
3465;SDS011;1747;48.884;9.160;2024-03-08T13:42:06;24.52;;;14.02;;
3465;SDS011;1747;48.884;9.160;2024-03-08T13:44:34;22.98;;;14.35;;
3465;SDS011;1747;48.884;9.160;2024-03-08T13:47:03;23.73;;;13.50;;
3465;SDS011;1747;48.884;9.160;2024-03-08T13:49:32;23.88;;;13.75;;
3465;SDS011;1747;48.884;9.160;2024-03-08T13:51:59;21.25;;;13.85;;
3465;SDS011;1747;48.884;9.160;2024-03-08T13:54:26;21.40;;;13.02;;
3465;SDS011;1747;48.884;9.160;2024-03-08T13:56:56;21.40;;;12.82;;
3465;SDS011;1747;48.884;9.160;2024-03-08T13:59:23;21.30;;;13.43;;
3465;SDS011;1747;48.884;9.160;2024-03-08T14:01:54;22.30;;;13.65;;
3465;SDS011;1747;48.884;9.160;2024-03-08T14:04:22;23.33;;;14.38;;
3465;SDS011;1747;48.884;9.160;2024-03-08T14:06:51;20.42;;;13.57;;
3465;SDS011;1747;48.884;9.160;2024-03-08T14:09:21;21.25;;;12.73;;
3465;SDS011;1747;48.884;9.160;2024-03-08T14:11:49;21.15;;;13.23;;
3465;SDS011;1747;48.884;9.160;2024-03-08T14:14:19;21.77;;;13.13;;
3465;SDS011;1747;48.884;9.160;2024-03-08T14:16:48;22.25;;;13.90;;
3465;SDS011;1747;48.884;9.160;2024-03-08T14:19:17;22.33;;;14.18;;
3465;SDS011;1747;48.884;9.160;2024-03-08T14:21:46;22.85;;;13.75;;
3465;SDS011;1747;48.884;9.160;2024-03-08T14:24:14;21.67;;;13.40;;
3465;SDS011;1747;48.884;9.160;2024-03-08T14:26:42;20.67;;;13.27;;
3465;SDS011;1747;48.884;9.160;2024-03-08T14:29:09;19.95;;;11.80;;
3465;SDS011;1747;48.884;9.160;2024-03-08T14:31:36;22.38;;;13.60;;
3465;SDS011;1747;48.884;9.160;2024-03-08T14:34:03;19.00;;;12.43;;
3465;SDS011;1747;48.884;9.160;2024-03-08T14:36:30;21.98;;;13.52;;
3465;SDS011;1747;48.884;9.160;2024-03-08T14:38:58;23.83;;;14.32;;
3465;SDS011;1747;48.884;9.160;2024-03-08T14:41:25;19.83;;;12.85;;
3465;SDS011;1747;48.884;9.160;2024-03-08T14:43:52;21.50;;;13.50;;
3465;SDS011;1747;48.884;9.160;2024-03-08T14:46:19;19.77;;;12.82;;
3465;SDS011;1747;48.884;9.160;2024-03-08T14:48:48;21.05;;;13.40;;
3465;SDS011;1747;48.884;9.160;2024-03-08T14:51:16;18.92;;;12.88;;
3465;SDS011;1747;48.884;9.160;2024-03-08T14:53:46;20.85;;;13.13;;
3465;SDS011;1747;48.884;9.160;2024-03-08T14:56:14;19.75;;;13.18;;
3465;SDS011;1747;48.884;9.160;2024-03-08T14:58:41;20.83;;;13.13;;
3465;SDS011;1747;48.884;9.160;2024-03-08T15:01:09;22.67;;;13.88;;
3465;SDS011;1747;48.884;9.160;2024-03-08T15:03:38;20.15;;;13.38;;
3465;SDS011;1747;48.884;9.160;2024-03-08T15:06:05;22.70;;;13.98;;
3465;SDS011;1747;48.884;9.160;2024-03-08T15:08:34;20.25;;;13.65;;
3465;SDS011;1747;48.884;9.160;2024-03-08T15:11:02;22.13;;;14.27;;
3465;SDS011;1747;48.884;9.160;2024-03-08T15:13:30;21.58;;;14.00;;
3465;SDS011;1747;48.884;9.160;2024-03-08T15:16:04;22.10;;;14.57;;
3465;SDS011;1747;48.884;9.160;2024-03-08T15:18:32;22.17;;;14.30;;
3465;SDS011;1747;48.884;9.160;2024-03-08T15:21:01;21.67;;;14.10;;
3465;SDS011;1747;48.884;9.160;2024-03-08T15:23:31;22.08;;;13.93;;
3465;SDS011;1747;48.884;9.160;2024-03-08T15:25:58;25.80;;;14.30;;
3465;SDS011;1747;48.884;9.160;2024-03-08T15:28:26;22.67;;;14.80;;
3465;SDS011;1747;48.884;9.160;2024-03-08T15:31:02;21.52;;;14.45;;
3465;SDS011;1747;48.884;9.160;2024-03-08T15:33:31;20.70;;;13.65;;
3465;SDS011;1747;48.884;9.160;2024-03-08T15:35:58;21.15;;;13.63;;
3465;SDS011;1747;48.884;9.160;2024-03-08T15:38:32;20.25;;;13.88;;
3465;SDS011;1747;48.884;9.160;2024-03-08T15:40:59;20.67;;;14.15;;
3465;SDS011;1747;48.884;9.160;2024-03-08T15:43:26;21.65;;;13.95;;
3465;SDS011;1747;48.884;9.160;2024-03-08T15:45:53;20.10;;;12.85;;
3465;SDS011;1747;48.884;9.160;2024-03-08T15:48:21;20.92;;;13.60;;
3465;SDS011;1747;48.884;9.160;2024-03-08T15:50:48;20.00;;;13.20;;
3465;SDS011;1747;48.884;9.160;2024-03-08T15:53:15;19.73;;;12.80;;
3465;SDS011;1747;48.884;9.160;2024-03-08T15:55:43;20.15;;;13.13;;
3465;SDS011;1747;48.884;9.160;2024-03-08T15:58:11;20.30;;;13.85;;
3465;SDS011;1747;48.884;9.160;2024-03-08T16:00:38;19.25;;;13.35;;
3465;SDS011;1747;48.884;9.160;2024-03-08T16:03:11;19.02;;;12.45;;
3465;SDS011;1747;48.884;9.160;2024-03-08T16:05:41;19.75;;;13.30;;
3465;SDS011;1747;48.884;9.160;2024-03-08T16:08:09;19.25;;;13.13;;
3465;SDS011;1747;48.884;9.160;2024-03-08T16:10:40;21.00;;;13.68;;
3465;SDS011;1747;48.884;9.160;2024-03-08T16:13:10;20.58;;;12.82;;
3465;SDS011;1747;48.884;9.160;2024-03-08T16:15:38;20.83;;;12.95;;
3465;SDS011;1747;48.884;9.160;2024-03-08T16:18:05;21.45;;;12.77;;
3465;SDS011;1747;48.884;9.160;2024-03-08T16:20:33;19.65;;;12.20;;
3465;SDS011;1747;48.884;9.160;2024-03-08T16:23:02;20.88;;;12.18;;
3465;SDS011;1747;48.884;9.160;2024-03-08T16:25:29;17.80;;;12.27;;
3465;SDS011;1747;48.884;9.160;2024-03-08T16:27:56;20.10;;;12.35;;
3465;SDS011;1747;48.884;9.160;2024-03-08T16:30:23;17.55;;;11.40;;
3465;SDS011;1747;48.884;9.160;2024-03-08T16:32:51;18.95;;;12.35;;
3465;SDS011;1747;48.884;9.160;2024-03-08T16:35:18;19.60;;;11.93;;
3465;SDS011;1747;48.884;9.160;2024-03-08T16:37:45;18.40;;;12.80;;
3465;SDS011;1747;48.884;9.160;2024-03-08T16:40:16;20.17;;;12.20;;
3465;SDS011;1747;48.884;9.160;2024-03-08T16:42:45;19.52;;;12.93;;
3465;SDS011;1747;48.884;9.160;2024-03-08T16:45:16;17.65;;;11.57;;
3465;SDS011;1747;48.884;9.160;2024-03-08T16:47:43;19.73;;;11.68;;
3465;SDS011;1747;48.884;9.160;2024-03-08T16:50:10;19.15;;;12.02;;
3465;SDS011;1747;48.884;9.160;2024-03-08T16:52:40;23.70;;;12.50;;
3465;SDS011;1747;48.884;9.160;2024-03-08T16:55:08;19.13;;;11.68;;
3465;SDS011;1747;48.884;9.160;2024-03-08T16:57:41;15.65;;;9.98;;
3465;SDS011;1747;48.884;9.160;2024-03-08T17:00:11;19.35;;;12.00;;
3465;SDS011;1747;48.884;9.160;2024-03-08T17:02:47;21.25;;;11.57;;
3465;SDS011;1747;48.884;9.160;2024-03-08T17:05:14;20.63;;;11.90;;
3465;SDS011;1747;48.884;9.160;2024-03-08T17:07:42;18.10;;;11.27;;
3465;SDS011;1747;48.884;9.160;2024-03-08T17:10:12;22.98;;;12.15;;
3465;SDS011;1747;48.884;9.160;2024-03-08T17:12:43;19.33;;;11.75;;
3465;SDS011;1747;48.884;9.160;2024-03-08T17:15:12;20.67;;;12.02;;
3465;SDS011;1747;48.884;9.160;2024-03-08T17:17:40;19.02;;;12.05;;
3465;SDS011;1747;48.884;9.160;2024-03-08T17:20:07;21.17;;;12.00;;
3465;SDS011;1747;48.884;9.160;2024-03-08T17:22:38;17.27;;;10.55;;
3465;SDS011;1747;48.884;9.160;2024-03-08T17:25:05;18.45;;;10.52;;
3465;SDS011;1747;48.884;9.160;2024-03-08T17:27:33;17.85;;;10.98;;
3465;SDS011;1747;48.884;9.160;2024-03-08T17:30:02;18.10;;;10.95;;
3465;SDS011;1747;48.884;9.160;2024-03-08T17:32:40;18.50;;;10.65;;
3465;SDS011;1747;48.884;9.160;2024-03-08T17:35:07;18.90;;;10.70;;
3465;SDS011;1747;48.884;9.160;2024-03-08T17:37:37;20.55;;;11.25;;
3465;SDS011;1747;48.884;9.160;2024-03-08T17:40:04;18.23;;;11.32;;
3465;SDS011;1747;48.884;9.160;2024-03-08T17:42:34;19.25;;;10.73;;
3465;SDS011;1747;48.884;9.160;2024-03-08T17:45:03;21.23;;;11.13;;
